Das ist die Wetter- und Hausseite der Bittkau's aus Magdeburg Ottersleben


Hier werden aktuelle Daten aus der privaten Wetterstation und

andere lokale Wettervorhersagen bereitgestellt




Thunder radar more information blitzortung!


Rain radar more information rain snow radar



Wind Gültig von: 17-01-2019 02:38 bis: 12:00 Warnung für: Wind Gefahrenstufe: Gelb info button

METAR-Meldungen aus der Umgebung

   
EBBC - Cochstedt
Aktualisierung: 01.01.1970 1:00
Nicht aktuell
  
  
   Wind: Windstille
Wind: Windstille
EDDP - Leipzig
Aktualisierung: 17.01.2019 3:50
Stark bewölkt  
Stark bewölkt  
   Wind: SW 35.2 km/h
Wind: SW 35.2 km/h
Temperatur: 5°C
Gefühlt: -1°C
Taupunkt: 0°C
Luftfeuchte: 70%
Luftdruck: 1000 hPa
Bewölkt: Stark bewölkt
Sichtbarkeit: More than 10 km
Bewölkung: Stark bewölkt 914.4 m
EDDP 170250Z 23019KT 9999 BKN030 05/M00 Q1000 TEMPO 23015G25KT
EDDC - Dresden
Aktualisierung: 17.01.2019 3:50
Stark bewölkt  
Stark bewölkt  
   Wind: SW 31.5 km/h
Wind: SW 31.5 km/h
Temperatur: 5°C
Gefühlt: 0°C
Taupunkt: 0°C
Luftfeuchte: 70%
Luftdruck: 1001 hPa
Bewölkt: Stark bewölkt
Sichtbarkeit: More than 10 km
Bewölkung: Stark bewölkt 1005.8 m
EDDC 170250Z 23017KT 9999 BKN033 05/M00 Q1001
EDDE - Erfurt
Aktualisierung: 17.01.2019 3:50
Stark bewölkt  
Stark bewölkt  
   Wind: SW 42.6 km/h
Wind: SW 42.6 km/h
Temperatur: 4°C
Gefühlt: -2°C
Taupunkt: 0°C
Luftfeuchte: 75%
Luftdruck: 1000 hPa
Bewölkt: Stark bewölkt
Sichtbarkeit: More than 10 km
Bewölkung: Teilweise bewölkt 944.9 m,
Stark bewölkt 1463 m
EDDE 170250Z 23023KT 9999 SCT031 BKN048 04/M00 Q1000
EDVE - Braunschweig
Aktualisierung: 16.01.2019 9:20
Nicht aktuell
Stark bewölkt  
Stark bewölkt  
   Wind: SW 20.4 km/h
Wind: SW 20.4 km/h
Temperatur: 4°C
Gefühlt: 0°C
Taupunkt: 0°C
Luftfeuchte: 75%
Luftdruck: 1002 hPa
Bewölkt: Stark bewölkt
Sichtbarkeit: More than 10 km
Bewölkung: Stark bewölkt 762 m,
Stark bewölkt 4572 m,
Stark bewölkt 5791.2 m
EDVE 162020Z 22011KT 9999 BKN025 BKN150 BKN190 04/M00 Q1002
EDDV - Hannover
Aktualisierung: 17.01.2019 3:50
  
  
   Wind: WSW 25.9 km/h
Wind: WSW 25.9 km/h
Temperatur: 5°C
Gefühlt: 1°C
Taupunkt: 3°C
Luftfeuchte: 87%
Luftdruck: 998 hPa
EDDV 170250Z AUTO 25014KT //// R27R/P2000N R27L/P2000N // ///////// 05/03 Q0998
EDDT - Berlin
Aktualisierung: 17.01.2019 3:50
Stark bewölkt  
Stark bewölkt  
   Wind: SW 22.2 km/h
Wind: SW 22.2 km/h
Temperatur: 4°C
Gefühlt: -1°C
Taupunkt: 0°C
Luftfeuchte: 75%
Luftdruck: 998 hPa
Bewölkt: Stark bewölkt
Sichtbarkeit: More than 10 km
Bewölkung: Stark bewölkt 762 m
EDDT 170250Z 22012KT 9999 BKN025 04/00 Q0998
EDDE - Schwerin
Aktualisierung: 17.01.2019 3:50
Stark bewölkt  
Stark bewölkt  
   Wind: SW 42.6 km/h
Wind: SW 42.6 km/h
Temperatur: 4°C
Gefühlt: -2°C
Taupunkt: 0°C
Luftfeuchte: 75%
Luftdruck: 1000 hPa
Bewölkt: Stark bewölkt
Sichtbarkeit: More than 10 km
Bewölkung: Teilweise bewölkt 944.9 m,
Stark bewölkt 1463 m
EDDE 170250Z 23023KT 9999 SCT031 BKN048 04/M00 Q1000
EDHI - Hamburg
Aktualisierung: 17.01.2019 3:50
Bewölkt  
Bewölkt  
   Wind: WSW 24.1 km/h
Wind: WSW 24.1 km/h
Temperatur: 5°C
Gefühlt: 1°C
Taupunkt: 3°C
Luftfeuchte: 87%
Luftdruck: 996 hPa
Bewölkt: Bewölkt
Sichtbarkeit: More than 10 km
Bewölkung: leicht bewölkt 396.2 m,
Teilweise bewölkt 975.4 m,
Bewölkt 1158.2 m
EDHI 170250Z AUTO 25013KT 9999 // FEW013/// SCT032/// OVC038/// 05/03 Q0996
EDDK - Köln/Bonn
Aktualisierung: 17.01.2019 3:50
Leichter Niederschlag möglich, Stark bewölkt  
Leichter Niederschlag möglich, Stark bewölkt  
   Wind: SW 13 km/h
Wind: SW 13 km/h
Temperatur: 5°C
Gefühlt: 2°C
Taupunkt: 3°C
Luftfeuchte: 87%
Luftdruck: 1003 hPa
Bewölkt: Stark bewölkt
Sichtbarkeit: More than 10 km
Bewölkung: Stark bewölkt 609.6 m
EDDK 170250Z 23007KT 180V320 9999 -RA BKN020 05/03 Q1003 NOSIG
EDHL - Luebeck
Aktualisierung: 16.01.2019 6:50
Nicht aktuell
Nebel, Stark bewölkt  
Nebel, Stark bewölkt  
   Wind: SSW 22.2 km/h
Wind: SSW 22.2 km/h
Temperatur: 5°C
Gefühlt: 1°C
Taupunkt: 4°C
Luftfeuchte: 93%
Luftdruck: 1000 hPa
Bewölkt: Stark bewölkt
Sichtbarkeit: 4 km
Bewölkung: Stark bewölkt 213.4 m
EDHL 161750Z 20012KT 4300 BR BKN007 05/04 Q1000
 

Script entwickelt von  Saratoga-weather.org Angepasst für das Template von  Weerstation Leuven

Sie finden die Wetterinfo auch auf:

Wetternetzwerk Deutschland

European Weather Network

Weather Underground

Regionalwetter-SA

wetter.com

wxforum.de

Genutzte Hardware, Software und WEB Anbieter:

Wetterstation
Ventus W928-Ultimate

Wetterprogramm
Meteohub

WetterComputer
RaspberryPI

Anbieter
WEB Provider One.com

Ventus W928-Ultimate

Meteohub

RaspberryPI

WEB Provider One.com